createdAt,value
2023-04-15T00:00:24.472Z,26.85
2023-04-15T00:01:24.472Z,26.83
2023-04-15T00:02:24.552Z,26.85
2023-04-15T00:03:24.626Z,26.83
2023-04-15T00:04:24.564Z,26.85
2023-04-15T00:05:24.457Z,26.85
2023-04-15T00:06:24.444Z,26.85
2023-04-15T00:07:24.432Z,26.85
2023-04-15T00:08:24.432Z,26.85
2023-04-15T00:09:24.410Z,26.85
2023-04-15T00:10:24.417Z,26.83
2023-04-15T00:11:24.397Z,26.87
2023-04-15T00:12:24.416Z,26.85
2023-04-15T00:13:24.396Z,26.83
2023-04-15T00:14:24.390Z,26.85
2023-04-15T00:15:24.390Z,26.85
2023-04-15T00:16:24.383Z,26.85
2023-04-15T00:17:24.383Z,26.82
2023-04-15T00:18:24.406Z,26.86
2023-04-15T00:19:24.396Z,26.86
2023-04-15T00:20:24.400Z,26.85
2023-04-15T00:21:24.389Z,26.85
2023-04-15T00:22:24.439Z,26.82
2023-04-15T00:23:24.406Z,26.85
2023-04-15T00:24:24.402Z,26.80
2023-04-15T00:25:24.386Z,26.83
2023-04-15T00:26:24.397Z,26.85
2023-04-15T00:27:24.373Z,26.85
2023-04-15T00:28:24.392Z,26.83
2023-04-15T00:29:24.386Z,26.83
2023-04-15T00:30:24.377Z,26.80
2023-04-15T00:31:24.465Z,26.83
2023-04-15T00:32:24.478Z,26.83
2023-04-15T00:33:24.416Z,26.83
2023-04-15T00:34:24.381Z,26.82
2023-04-15T00:35:24.348Z,26.83
2023-04-15T00:36:24.358Z,26.83
2023-04-15T00:37:24.370Z,26.82
2023-04-15T00:38:24.392Z,26.82
2023-04-15T00:39:24.350Z,26.83
2023-04-15T00:40:24.372Z,26.85
2023-04-15T00:41:24.361Z,26.82
2023-04-15T00:42:24.345Z,26.82
2023-04-15T00:43:24.382Z,26.82
2023-04-15T00:44:24.359Z,26.82
2023-04-15T00:45:24.364Z,26.82
2023-04-15T00:46:24.445Z,26.83
2023-04-15T00:47:24.349Z,26.80
2023-04-15T00:48:24.333Z,26.83
2023-04-15T00:49:24.318Z,26.82
2023-04-15T00:50:24.309Z,26.82
2023-04-15T00:51:24.322Z,26.82
2023-04-15T00:52:24.315Z,26.83
2023-04-15T00:53:24.314Z,26.83
2023-04-15T00:54:24.300Z,26.79
2023-04-15T00:55:24.312Z,26.80
2023-04-15T00:56:24.310Z,26.79
2023-04-15T00:57:24.289Z,26.80
2023-04-15T00:58:24.278Z,26.82
2023-04-15T00:59:24.288Z,26.80
2023-04-15T01:00:24.278Z,26.80
2023-04-15T01:01:24.278Z,26.80
2023-04-15T01:02:24.356Z,26.80
2023-04-15T01:03:24.338Z,26.80
2023-04-15T01:04:24.350Z,26.79
2023-04-15T01:05:24.254Z,26.79
2023-04-15T01:06:24.261Z,26.78
2023-04-15T01:07:24.254Z,26.82
2023-04-15T01:08:24.238Z,26.79
2023-04-15T01:09:24.231Z,26.78
2023-04-15T01:10:24.282Z,26.79
2023-04-15T01:11:24.233Z,26.82
2023-04-15T01:12:24.222Z,26.79
2023-04-15T01:13:24.237Z,26.82
2023-04-15T01:14:24.223Z,26.80
2023-04-15T01:15:24.225Z,26.80
2023-04-15T01:16:24.252Z,26.79
2023-04-15T01:17:24.221Z,26.80
2023-04-15T01:18:24.209Z,26.79
2023-04-15T01:19:24.243Z,26.80
2023-04-15T01:20:24.203Z,26.80
2023-04-15T01:21:24.235Z,26.78
2023-04-15T01:22:24.195Z,26.79
2023-04-15T01:23:24.218Z,26.79
2023-04-15T01:24:24.210Z,26.79
2023-04-15T01:25:24.193Z,26.79
2023-04-15T01:26:24.198Z,26.80
2023-04-15T01:27:24.198Z,26.80
2023-04-15T01:28:24.180Z,26.79
2023-04-15T01:29:24.183Z,26.76
2023-04-15T01:30:24.190Z,26.79
2023-04-15T01:31:24.237Z,26.79
2023-04-15T01:32:24.178Z,26.79
2023-04-15T01:33:24.169Z,26.78
2023-04-15T01:34:24.164Z,26.79
2023-04-15T01:35:24.194Z,26.78
2023-04-15T01:36:24.169Z,26.76
2023-04-15T01:37:24.173Z,26.80
2023-04-15T01:38:24.162Z,26.75
2023-04-15T01:39:24.156Z,26.78
2023-04-15T01:40:24.166Z,26.79
2023-04-15T01:41:24.166Z,26.76
2023-04-15T01:42:24.170Z,26.75
2023-04-15T01:43:24.149Z,26.76
2023-04-15T01:44:24.189Z,26.79
2023-04-15T01:45:24.162Z,26.76
2023-04-15T01:46:24.166Z,26.75
2023-04-15T01:47:24.195Z,26.78
2023-04-15T01:48:24.156Z,26.76
2023-04-15T01:49:24.139Z,26.76
2023-04-15T01:50:24.142Z,26.75
2023-04-15T01:51:24.141Z,26.78
2023-04-15T01:52:24.139Z,26.76
2023-04-15T01:53:24.140Z,26.78
2023-04-15T01:54:24.162Z,26.78
2023-04-15T01:55:24.143Z,26.78
2023-04-15T01:56:24.143Z,26.75
2023-04-15T01:57:24.156Z,26.76
2023-04-15T01:58:24.155Z,26.75
2023-04-15T01:59:24.169Z,26.76
2023-04-15T02:00:24.176Z,26.76
2023-04-15T02:01:24.204Z,26.75
2023-04-15T02:02:24.234Z,26.73
2023-04-15T02:03:24.212Z,26.76
2023-04-15T02:04:24.180Z,26.73
2023-04-15T02:05:24.157Z,26.75
2023-04-15T02:06:24.172Z,26.76
2023-04-15T02:07:24.167Z,26.73
2023-04-15T02:08:24.184Z,26.75
2023-04-15T02:09:24.183Z,26.75
2023-04-15T02:10:24.183Z,26.76
2023-04-15T02:11:24.196Z,26.75
2023-04-15T02:12:24.183Z,26.73
2023-04-15T02:13:24.206Z,26.75
2023-04-15T02:14:24.214Z,26.72
2023-04-15T02:15:24.207Z,26.75
2023-04-15T02:16:24.239Z,26.72
2023-04-15T02:17:24.209Z,26.73
2023-04-15T02:18:24.194Z,26.73
2023-04-15T02:19:24.196Z,26.75
2023-04-15T02:20:24.212Z,26.75
2023-04-15T02:21:24.200Z,26.75
2023-04-15T02:22:24.212Z,26.73
2023-04-15T02:23:24.218Z,26.75
2023-04-15T02:24:24.224Z,26.73
2023-04-15T02:25:24.241Z,26.75
2023-04-15T02:26:24.202Z,26.72
2023-04-15T02:27:24.225Z,26.73
2023-04-15T02:28:24.223Z,26.75
2023-04-15T02:29:24.228Z,26.73
2023-04-15T02:30:24.223Z,26.73
2023-04-15T02:31:24.268Z,26.73
2023-04-15T02:32:24.275Z,26.72
2023-04-15T02:33:24.240Z,26.73
2023-04-15T02:34:24.256Z,26.72
2023-04-15T02:35:24.251Z,26.72
2023-04-15T02:36:24.261Z,26.73
2023-04-15T02:37:24.242Z,26.73
2023-04-15T02:38:24.251Z,26.73
2023-04-15T02:39:24.248Z,26.73
2023-04-15T02:40:24.264Z,26.75
2023-04-15T02:41:24.265Z,26.71
2023-04-15T02:42:24.269Z,26.73
2023-04-15T02:43:24.309Z,26.71
2023-04-15T02:44:24.290Z,26.71
2023-04-15T02:45:24.323Z,26.73
2023-04-15T02:46:24.419Z,26.71
2023-04-15T02:47:24.327Z,26.72
2023-04-15T02:48:24.350Z,26.72
2023-04-15T02:49:24.353Z,26.71
2023-04-15T02:50:24.358Z,26.72
2023-04-15T02:51:24.367Z,26.71
2023-04-15T02:52:24.381Z,26.72
2023-04-15T02:53:24.374Z,26.71
2023-04-15T02:54:24.396Z,26.73
2023-04-15T02:55:24.409Z,26.72
2023-04-15T02:56:24.411Z,26.72
2023-04-15T02:57:24.405Z,26.71
2023-04-15T02:58:24.411Z,26.72
2023-04-15T02:59:24.434Z,26.72
2023-04-15T03:00:24.441Z,26.71
2023-04-15T03:01:24.497Z,26.71
2023-04-15T03:02:24.766Z,26.71
2023-04-15T03:03:24.518Z,26.72
2023-04-15T03:04:24.472Z,26.69
2023-04-15T03:05:24.493Z,26.71
2023-04-15T03:06:24.479Z,26.68
2023-04-15T03:07:24.503Z,26.71
2023-04-15T03:08:24.521Z,26.71
2023-04-15T03:09:24.508Z,26.71
2023-04-15T03:10:24.519Z,26.71
2023-04-15T03:11:24.524Z,26.71
2023-04-15T03:12:24.541Z,26.69
2023-04-15T03:13:24.526Z,26.69
2023-04-15T03:14:24.535Z,26.71
2023-04-15T03:15:24.539Z,26.69
2023-04-15T03:16:24.532Z,26.71
2023-04-15T03:17:24.537Z,26.69
2023-04-15T03:18:24.531Z,26.71
2023-04-15T03:19:24.551Z,26.75
2023-04-15T03:20:24.560Z,26.71
2023-04-15T03:21:24.558Z,26.68
2023-04-15T03:22:24.579Z,26.69
2023-04-15T03:23:24.566Z,26.69
2023-04-15T03:24:24.557Z,26.71
2023-04-15T03:25:24.573Z,26.69
2023-04-15T03:26:24.569Z,26.69
2023-04-15T03:27:24.580Z,26.69
2023-04-15T03:28:24.569Z,26.71
2023-04-15T03:29:24.565Z,26.71
2023-04-15T03:30:24.576Z,26.68
2023-04-15T03:31:24.598Z,26.69
2023-04-15T03:32:24.610Z,26.68
2023-04-15T03:33:24.585Z,26.71
2023-04-15T03:34:24.612Z,26.71
2023-04-15T03:35:24.588Z,26.69
2023-04-15T03:36:24.630Z,26.69
2023-04-15T03:37:24.626Z,26.68
2023-04-15T03:38:24.619Z,26.68
2023-04-15T03:39:24.615Z,26.68
2023-04-15T03:40:24.636Z,26.71
2023-04-15T03:41:24.643Z,26.69
2023-04-15T03:42:24.662Z,26.71
2023-04-15T03:43:24.662Z,26.68
2023-04-15T03:44:24.647Z,26.69
2023-04-15T03:45:24.681Z,26.68
2023-04-15T03:46:24.712Z,26.68
2023-04-15T03:47:24.685Z,26.68
2023-04-15T03:48:24.736Z,26.68
2023-04-15T03:49:24.682Z,26.68
2023-04-15T03:50:24.682Z,26.69
2023-04-15T03:51:24.716Z,26.69
2023-04-15T03:52:24.704Z,26.69
2023-04-15T03:53:24.701Z,26.69
2023-04-15T03:54:24.681Z,26.68
2023-04-15T03:55:24.692Z,26.68
2023-04-15T03:56:24.693Z,26.69
2023-04-15T03:57:24.712Z,26.68
2023-04-15T03:58:24.718Z,26.69
2023-04-15T03:59:24.721Z,26.69
2023-04-15T04:00:24.735Z,26.68
2023-04-15T04:01:24.729Z,26.68
2023-04-15T04:02:24.906Z,26.71
2023-04-15T04:03:25.002Z,26.69
2023-04-15T04:04:24.940Z,26.68
2023-04-15T04:05:24.745Z,26.64
2023-04-15T04:06:24.740Z,26.66
2023-04-15T04:07:24.752Z,26.66
2023-04-15T04:08:24.757Z,26.66
2023-04-15T04:09:24.773Z,26.69
2023-04-15T04:10:24.781Z,26.68
2023-04-15T04:11:24.779Z,26.66
2023-04-15T04:12:24.791Z,26.64
2023-04-15T04:13:24.811Z,26.68
2023-04-15T04:14:24.814Z,26.68
2023-04-15T04:15:24.855Z,26.68
2023-04-15T04:16:24.964Z,26.66
2023-04-15T04:17:24.873Z,26.64
2023-04-15T04:18:24.844Z,26.68
2023-04-15T04:19:24.851Z,26.68
2023-04-15T04:20:24.866Z,26.66
2023-04-15T04:21:24.889Z,26.66
2023-04-15T04:22:24.894Z,26.68
2023-04-15T04:23:24.892Z,26.68
2023-04-15T04:24:24.900Z,26.68
2023-04-15T04:25:24.922Z,26.68
2023-04-15T04:26:24.944Z,26.64
2023-04-15T04:27:24.953Z,26.66
2023-04-15T04:28:24.968Z,26.66
2023-04-15T04:29:24.976Z,26.66
2023-04-15T04:30:24.989Z,26.68
2023-04-15T04:31:25.038Z,26.66
2023-04-15T04:32:25.031Z,26.68
2023-04-15T04:33:25.041Z,26.68
2023-04-15T04:34:25.030Z,26.64
2023-04-15T04:35:25.045Z,26.66
2023-04-15T04:36:25.068Z,26.66
2023-04-15T04:37:25.070Z,26.68
2023-04-15T04:38:25.076Z,26.66
2023-04-15T04:39:25.098Z,26.66
2023-04-15T04:40:25.132Z,26.68
2023-04-15T04:41:25.140Z,26.64
2023-04-15T04:42:25.148Z,26.68
2023-04-15T04:43:25.150Z,26.64
2023-04-15T04:44:25.172Z,26.66
2023-04-15T04:45:25.182Z,26.63
2023-04-15T04:46:25.203Z,26.66
2023-04-15T04:47:25.246Z,26.68
2023-04-15T04:48:25.221Z,26.64
2023-04-15T04:49:25.235Z,26.66
2023-04-15T04:50:25.256Z,26.64
2023-04-15T04:51:25.269Z,26.66
2023-04-15T04:52:25.275Z,26.64
2023-04-15T04:53:25.281Z,26.68
2023-04-15T04:54:25.294Z,26.68
2023-04-15T04:55:25.299Z,26.63
2023-04-15T04:56:25.302Z,26.66
2023-04-15T04:57:25.297Z,26.64
2023-04-15T04:58:25.322Z,26.68
2023-04-15T04:59:25.316Z,26.68
2023-04-15T05:00:25.357Z,26.64
2023-04-15T05:01:25.354Z,26.63
2023-04-15T05:02:25.441Z,26.63
2023-04-15T05:03:25.457Z,26.64
2023-04-15T05:04:25.341Z,26.66
2023-04-15T05:05:25.357Z,26.64
2023-04-15T05:06:25.380Z,26.66
2023-04-15T05:07:25.367Z,26.66
2023-04-15T05:08:25.376Z,26.63
2023-04-15T05:09:25.402Z,26.64
2023-04-15T05:10:25.407Z,26.63
2023-04-15T05:11:25.425Z,26.64
2023-04-15T05:12:25.418Z,26.64
2023-04-15T05:13:25.468Z,26.62
2023-04-15T05:14:25.452Z,26.63
2023-04-15T05:15:25.458Z,26.64
2023-04-15T05:16:25.468Z,26.66
2023-04-15T05:17:25.527Z,26.63
2023-04-15T05:18:25.528Z,26.64
2023-04-15T05:19:25.514Z,26.66
2023-04-15T05:20:25.511Z,26.66
2023-04-15T05:21:25.540Z,26.66
2023-04-15T05:22:25.554Z,26.63
2023-04-15T05:23:25.586Z,26.64
2023-04-15T05:24:25.577Z,26.63
2023-04-15T05:25:25.578Z,26.64
2023-04-15T05:26:25.602Z,26.66
2023-04-15T05:27:25.617Z,26.64
2023-04-15T05:28:25.619Z,26.66
2023-04-15T05:29:25.620Z,26.64
2023-04-15T05:30:25.651Z,26.68
2023-04-15T05:31:25.658Z,26.68
2023-04-15T05:32:25.691Z,26.68
2023-04-15T05:33:25.681Z,26.64
2023-04-15T05:34:25.675Z,26.69
2023-04-15T05:35:25.701Z,26.68
2023-04-15T05:36:25.722Z,26.69
2023-04-15T05:37:25.716Z,26.68
2023-04-15T05:38:25.728Z,26.66
2023-04-15T05:39:25.743Z,26.68
2023-04-15T05:40:25.772Z,26.69
2023-04-15T05:41:25.786Z,26.68
2023-04-15T05:42:25.804Z,26.66
2023-04-15T05:43:25.801Z,26.66
2023-04-15T05:44:25.826Z,26.69
2023-04-15T05:45:25.819Z,26.68
2023-04-15T05:46:25.909Z,26.68
2023-04-15T05:47:25.854Z,26.68
2023-04-15T05:48:25.845Z,26.68
2023-04-15T05:49:25.860Z,26.71
2023-04-15T05:50:25.856Z,26.71
2023-04-15T05:51:25.868Z,26.69
2023-04-15T05:52:25.879Z,26.71
2023-04-15T05:53:25.878Z,26.68
2023-04-15T05:54:25.902Z,26.69
2023-04-15T05:55:25.902Z,26.68
2023-04-15T05:56:25.934Z,26.68
2023-04-15T05:57:25.928Z,26.69
2023-04-15T05:58:25.936Z,26.69
2023-04-15T05:59:25.968Z,26.71
2023-04-15T06:00:25.944Z,26.69
2023-04-15T06:01:25.971Z,26.69
2023-04-15T06:02:26.037Z,26.68
2023-04-15T06:03:26.079Z,26.71
2023-04-15T06:04:26.127Z,26.69
2023-04-15T06:05:25.991Z,26.71
2023-04-15T06:06:26.008Z,26.68
2023-04-15T06:07:25.995Z,26.71
2023-04-15T06:08:26.011Z,26.71
2023-04-15T06:09:26.016Z,26.69
2023-04-15T06:10:26.027Z,26.69
2023-04-15T06:11:26.028Z,26.72
2023-04-15T06:12:26.034Z,26.71
2023-04-15T06:13:26.041Z,26.69
2023-04-15T06:14:26.038Z,26.72
2023-04-15T06:15:26.082Z,26.71
2023-04-15T06:16:26.067Z,26.71
2023-04-15T06:17:26.100Z,26.71
2023-04-15T06:18:26.073Z,26.72
2023-04-15T06:19:26.080Z,26.71
2023-04-15T06:20:26.092Z,26.71
2023-04-15T06:21:26.081Z,26.72
2023-04-15T06:22:26.099Z,26.71
2023-04-15T06:23:27.032Z,26.73
2023-04-15T06:24:26.103Z,26.71
2023-04-15T06:25:26.111Z,26.72
2023-04-15T06:26:26.107Z,26.73
2023-04-15T06:27:26.108Z,26.71
2023-04-15T06:28:26.104Z,26.75
2023-04-15T06:29:26.122Z,26.75
2023-04-15T06:30:26.120Z,26.73
2023-04-15T06:31:26.121Z,26.72
2023-04-15T06:32:26.167Z,26.72
2023-04-15T06:33:26.112Z,26.72
2023-04-15T06:34:26.130Z,26.76
2023-04-15T06:35:26.140Z,26.76
2023-04-15T06:36:26.111Z,26.72
2023-04-15T06:37:26.113Z,26.73
2023-04-15T06:38:26.138Z,26.76
2023-04-15T06:39:26.134Z,26.76
2023-04-15T06:40:26.129Z,26.76
2023-04-15T06:41:26.130Z,26.73
2023-04-15T06:42:26.122Z,26.75
2023-04-15T06:43:26.120Z,26.78
2023-04-15T06:44:26.169Z,26.78
2023-04-15T06:45:26.195Z,26.76
2023-04-15T06:46:26.215Z,26.78
2023-04-15T06:47:26.137Z,26.78
2023-04-15T06:48:26.101Z,26.76
2023-04-15T06:49:26.101Z,26.78
2023-04-15T06:50:26.158Z,26.75
2023-04-15T06:51:26.842Z,26.78
2023-04-15T06:52:26.117Z,26.79
2023-04-15T06:53:26.099Z,26.79
2023-04-15T06:54:26.108Z,26.79
2023-04-15T06:55:26.111Z,26.79
2023-04-15T06:56:26.099Z,26.82
2023-04-15T06:57:26.088Z,26.79
2023-04-15T06:58:26.092Z,26.82
2023-04-15T06:59:26.094Z,26.80
2023-04-15T07:00:26.142Z,26.79
2023-04-15T07:01:26.115Z,26.82
2023-04-15T07:02:26.152Z,26.82
2023-04-15T07:03:26.069Z,26.82
2023-04-15T07:04:26.131Z,26.80
2023-04-15T07:05:26.070Z,26.82
2023-04-15T07:06:26.086Z,26.83
2023-04-15T07:07:26.070Z,26.82
2023-04-15T07:08:26.076Z,26.83
2023-04-15T07:09:26.057Z,26.83
2023-04-15T07:10:26.089Z,26.85
2023-04-15T07:11:26.078Z,26.83
2023-04-15T07:12:26.057Z,26.86
2023-04-15T07:13:26.059Z,26.85
2023-04-15T07:14:26.058Z,26.86
2023-04-15T07:15:26.078Z,26.85
2023-04-15T07:17:26.173Z,26.87
2023-04-15T07:18:26.155Z,26.86
2023-04-15T07:19:26.156Z,26.86
2023-04-15T07:20:26.306Z,26.87
2023-04-15T07:21:26.217Z,26.87
2023-04-15T07:22:26.296Z,26.89
2023-04-15T07:23:26.297Z,26.86
2023-04-15T07:24:26.325Z,26.87
2023-04-15T07:25:26.334Z,26.90
2023-04-15T07:26:26.379Z,26.92
2023-04-15T07:27:26.403Z,26.92
2023-04-15T07:28:26.449Z,26.92
2023-04-15T07:29:26.449Z,26.92
2023-04-15T07:30:26.511Z,26.93
2023-04-15T07:31:26.554Z,26.93
2023-04-15T07:32:26.569Z,26.94
2023-04-15T07:33:26.545Z,26.94
2023-04-15T07:34:26.624Z,26.92
2023-04-15T07:35:26.675Z,26.93
2023-04-15T07:36:26.689Z,26.96
2023-04-15T07:37:26.744Z,26.94
2023-04-15T07:38:26.790Z,26.94
2023-04-15T07:39:26.854Z,26.96
2023-04-15T07:40:26.894Z,26.94
2023-04-15T07:41:26.956Z,26.97
2023-04-15T07:42:27.025Z,26.99
2023-04-15T07:43:27.073Z,26.97
2023-04-15T07:44:27.115Z,26.94
2023-04-15T07:45:27.180Z,26.97
2023-04-15T07:46:27.348Z,27.00
2023-04-15T07:47:27.345Z,27.00
2023-04-15T07:48:27.381Z,27.00
2023-04-15T07:49:27.439Z,27.00
2023-04-15T07:50:27.507Z,27.00
2023-04-15T07:51:27.558Z,27.02
2023-04-15T07:52:27.649Z,27.00
2023-04-15T07:53:27.757Z,27.00
2023-04-15T07:54:27.731Z,27.00
2023-04-15T07:55:28.304Z,27.03
2023-04-15T07:56:27.867Z,27.02
2023-04-15T07:57:27.935Z,27.03
2023-04-15T07:58:27.975Z,27.03
2023-04-15T07:59:28.049Z,27.03
2023-04-15T08:00:28.106Z,27.03
2023-04-15T08:01:28.174Z,27.02
2023-04-15T08:02:28.279Z,27.06
2023-04-15T08:03:28.404Z,27.06
2023-04-15T08:04:28.457Z,27.04
2023-04-15T08:05:28.420Z,27.06
2023-04-15T08:06:28.466Z,27.09
2023-04-15T08:07:28.533Z,27.09
2023-04-15T08:08:28.584Z,27.07
2023-04-15T08:09:28.657Z,27.07
2023-04-15T08:10:28.717Z,27.10
2023-04-15T08:11:28.770Z,27.10
2023-04-15T08:12:28.816Z,27.11
2023-04-15T08:13:28.876Z,27.11
2023-04-15T08:14:28.943Z,27.13
2023-04-15T08:15:29.000Z,27.13
2023-04-15T08:16:29.084Z,27.13
2023-04-15T08:17:29.136Z,27.14
2023-04-15T08:18:29.174Z,27.15
2023-04-15T08:19:29.201Z,27.18
2023-04-15T08:20:29.258Z,27.17
2023-04-15T08:21:29.284Z,27.18
2023-04-15T08:22:29.338Z,27.18
2023-04-15T08:23:29.387Z,27.20
2023-04-15T08:24:29.439Z,27.20
2023-04-15T08:25:29.505Z,27.18
2023-04-15T08:26:29.541Z,27.20
2023-04-15T08:27:29.605Z,27.23
2023-04-15T08:28:29.648Z,27.20
2023-04-15T08:29:29.689Z,27.23
2023-04-15T08:30:29.733Z,27.21
2023-04-15T08:31:29.835Z,27.23
2023-04-15T08:32:29.822Z,27.23
2023-04-15T08:33:29.862Z,27.26
2023-04-15T08:34:29.881Z,27.27
2023-04-15T08:35:29.940Z,27.29
2023-04-15T08:36:29.965Z,27.30
2023-04-15T08:37:30.003Z,27.29
2023-04-15T08:38:30.048Z,27.29
2023-04-15T08:39:30.092Z,27.29
2023-04-15T08:40:30.124Z,27.30
2023-04-15T08:41:30.171Z,27.31
2023-04-15T08:42:30.206Z,27.34
2023-04-15T08:43:30.250Z,27.36
2023-04-15T08:44:30.266Z,27.38
2023-04-15T08:45:30.310Z,27.38
2023-04-15T08:46:30.377Z,27.40
2023-04-15T08:47:30.377Z,27.38
2023-04-15T08:48:30.379Z,27.40
2023-04-15T08:49:30.441Z,27.45
2023-04-15T08:50:30.426Z,27.44
2023-04-15T08:51:30.440Z,27.45
2023-04-15T08:52:30.466Z,27.48
2023-04-15T08:53:30.513Z,27.50
2023-04-15T08:54:30.492Z,27.52
2023-04-15T08:55:30.523Z,27.55
2023-04-15T08:56:30.541Z,27.57
2023-04-15T08:57:30.531Z,27.61
2023-04-15T08:58:30.554Z,27.60
2023-04-15T08:59:30.550Z,27.64
2023-04-15T09:00:30.561Z,27.64
2023-04-15T09:01:30.596Z,27.69
2023-04-15T09:02:30.636Z,27.72
2023-04-15T09:03:30.701Z,27.75
2023-04-15T09:04:30.597Z,27.72
2023-04-15T09:05:30.574Z,27.75
2023-04-15T09:06:30.578Z,27.80
2023-04-15T09:07:30.557Z,27.81
2023-04-15T09:08:30.552Z,27.80
2023-04-15T09:09:30.563Z,27.82
2023-04-15T09:10:30.565Z,27.85
2023-04-15T09:11:30.543Z,27.85
2023-04-15T09:12:30.545Z,27.85
2023-04-15T09:13:30.572Z,27.89
2023-04-15T09:14:30.572Z,27.91
2023-04-15T09:15:30.579Z,27.91
2023-04-15T09:16:30.589Z,27.93
2023-04-15T09:17:30.630Z,27.96
2023-04-15T09:18:30.590Z,27.96
2023-04-15T09:19:30.580Z,28.02
2023-04-15T09:20:30.587Z,28.02
2023-04-15T09:21:30.594Z,28.06
2023-04-15T09:22:30.578Z,28.08
2023-04-15T09:23:30.598Z,28.09
2023-04-15T09:24:30.589Z,28.12
2023-04-15T09:25:32.809Z,28.12
2023-04-15T09:26:30.570Z,28.11
2023-04-15T09:27:30.563Z,28.12
2023-04-15T09:28:30.574Z,28.16
2023-04-15T09:29:30.561Z,28.16
2023-04-15T09:30:30.591Z,28.19
2023-04-15T09:31:30.532Z,28.20
2023-04-15T09:32:30.588Z,28.20
2023-04-15T09:33:30.524Z,28.23
2023-04-15T09:34:30.521Z,28.24
2023-04-15T09:35:30.510Z,28.26
2023-04-15T09:36:30.500Z,28.30
2023-04-15T09:37:32.649Z,28.27
2023-04-15T09:38:30.493Z,28.30
2023-04-15T09:39:30.500Z,28.29
2023-04-15T09:40:30.476Z,28.30
2023-04-15T09:41:30.502Z,28.27
2023-04-15T09:42:30.467Z,28.30
2023-04-15T09:43:30.486Z,28.32
2023-04-15T09:44:30.552Z,28.27
2023-04-15T09:45:30.621Z,28.33
2023-04-15T09:46:30.779Z,28.33
2023-04-15T09:47:30.781Z,28.38
2023-04-15T09:48:30.803Z,28.35
2023-04-15T09:49:30.864Z,28.39
2023-04-15T09:50:30.916Z,28.39
2023-04-15T09:51:30.967Z,28.39
2023-04-15T09:52:31.008Z,28.39
2023-04-15T09:53:31.948Z,28.40
2023-04-15T09:54:31.097Z,28.43
2023-04-15T09:55:31.167Z,28.47
2023-04-15T09:56:31.206Z,28.46
2023-04-15T09:57:31.269Z,28.47
2023-04-15T09:58:31.292Z,28.47
2023-04-15T09:59:31.333Z,28.46
2023-04-15T10:00:31.375Z,28.47
2023-04-15T10:01:31.461Z,28.44
2023-04-15T10:02:31.546Z,28.44
2023-04-15T10:03:31.589Z,28.43
2023-04-15T10:04:31.535Z,28.44
2023-04-15T10:05:31.570Z,28.44
2023-04-15T10:06:31.615Z,28.42
2023-04-15T10:07:31.673Z,28.42
2023-04-15T10:08:31.690Z,28.44
2023-04-15T10:09:31.727Z,28.46
2023-04-15T10:10:31.754Z,28.44
2023-04-15T10:11:31.969Z,28.47
2023-04-15T10:12:31.838Z,28.49
2023-04-15T10:13:31.878Z,28.47
2023-04-15T10:14:31.907Z,28.52
2023-04-15T10:15:31.982Z,28.50
2023-04-15T10:16:31.996Z,28.52
2023-04-15T10:17:32.057Z,28.52
2023-04-15T10:18:32.075Z,28.49
2023-04-15T10:19:32.116Z,28.49
2023-04-15T10:20:32.144Z,28.56
2023-04-15T10:21:32.196Z,28.53
2023-04-15T10:22:32.223Z,28.54
2023-04-15T10:23:32.275Z,28.54
2023-04-15T10:24:32.315Z,28.54
2023-04-15T10:25:32.359Z,28.57
2023-04-15T10:26:32.392Z,28.54
2023-04-15T10:27:32.447Z,28.56
2023-04-15T10:28:32.475Z,28.57
2023-04-15T10:29:32.594Z,28.59
2023-04-15T10:30:32.550Z,28.57
2023-04-15T10:31:32.710Z,28.57
2023-04-15T10:32:32.651Z,28.56
2023-04-15T10:33:32.680Z,28.57
2023-04-15T10:34:32.728Z,28.60
2023-04-15T10:35:32.747Z,28.57
2023-04-15T10:36:32.781Z,28.56
2023-04-15T10:37:32.814Z,28.57
2023-04-15T10:38:32.872Z,28.54
2023-04-15T10:39:32.918Z,28.54
2023-04-15T10:40:32.943Z,28.54
2023-04-15T10:41:33.016Z,28.60
2023-04-15T10:42:33.074Z,28.53
2023-04-15T10:43:33.094Z,28.54
2023-04-15T10:44:33.130Z,28.52
2023-04-15T10:45:33.188Z,28.54
2023-04-15T10:46:33.273Z,28.52
2023-04-15T10:47:33.289Z,28.53
2023-04-15T10:48:33.330Z,28.49
2023-04-15T10:49:33.370Z,28.52
2023-04-15T10:50:33.429Z,28.50
2023-04-15T10:51:33.457Z,28.50
2023-04-15T10:52:33.513Z,28.50
2023-04-15T10:53:33.552Z,28.52
2023-04-15T10:54:33.597Z,28.50
2023-04-15T10:55:33.654Z,28.50
2023-04-15T10:56:33.701Z,28.52
2023-04-15T10:57:33.745Z,28.52
2023-04-15T10:58:33.792Z,28.50
2023-04-15T10:59:33.831Z,28.53
2023-04-15T11:00:33.888Z,28.54
2023-04-15T11:01:33.963Z,28.52
2023-04-15T11:02:34.226Z,28.50
2023-04-15T11:03:34.256Z,28.50
2023-04-15T11:04:34.148Z,28.52
2023-04-15T11:05:34.121Z,28.53
2023-04-15T11:06:34.192Z,28.50
2023-04-15T11:07:34.242Z,28.49
2023-04-15T11:08:34.279Z,28.49
2023-04-15T11:09:34.349Z,28.52
2023-04-15T11:10:34.404Z,28.52
2023-04-15T11:11:34.458Z,28.46
2023-04-15T11:12:34.501Z,28.50
2023-04-15T11:13:34.562Z,28.50
2023-04-15T11:14:34.621Z,28.49
2023-04-15T11:15:34.664Z,28.52
2023-04-15T11:16:34.751Z,28.49
2023-04-15T11:17:34.791Z,28.47
2023-04-15T11:18:34.846Z,28.43
2023-04-15T11:19:34.869Z,28.47
2023-04-15T11:20:34.934Z,28.47
2023-04-15T11:21:34.980Z,28.46
2023-04-15T11:22:35.044Z,28.47
2023-04-15T11:23:35.097Z,28.50
2023-04-15T11:24:35.151Z,28.47
2023-04-15T11:25:35.198Z,28.50
2023-04-15T11:26:35.244Z,28.46
2023-04-15T11:27:35.311Z,28.50
2023-04-15T11:28:36.737Z,28.44
2023-04-15T11:29:35.406Z,28.47
2023-04-15T11:30:35.458Z,28.46
2023-04-15T11:31:35.544Z,28.50
2023-04-15T11:32:35.574Z,28.52
2023-04-15T11:33:35.602Z,28.50
2023-04-15T11:34:36.205Z,28.53
2023-04-15T11:35:35.718Z,28.50
2023-04-15T11:36:35.785Z,28.52
2023-04-15T11:37:35.825Z,28.52
2023-04-15T11:38:35.878Z,28.50
2023-04-15T11:39:35.915Z,28.50
2023-04-15T11:40:35.977Z,28.52
2023-04-15T11:41:36.040Z,28.50
2023-04-15T11:42:48.590Z,28.47
2023-04-15T11:43:37.095Z,28.52
2023-04-15T11:44:36.069Z,28.50
2023-04-15T11:45:36.183Z,28.50
2023-04-15T11:46:36.075Z,28.44
2023-04-15T11:47:36.110Z,28.52
2023-04-15T11:48:36.071Z,28.50
2023-04-15T11:49:36.066Z,28.46
2023-04-15T11:50:36.041Z,28.52
2023-04-15T11:51:36.034Z,28.47
2023-04-15T11:52:36.039Z,28.46
2023-04-15T11:53:36.096Z,28.40
2023-04-15T11:54:36.155Z,28.44
2023-04-15T11:55:36.220Z,28.44
2023-04-15T11:56:36.294Z,28.46
2023-04-15T11:57:36.331Z,28.47
2023-04-15T11:58:36.394Z,28.46
2023-04-15T11:59:44.980Z,28.43
2023-04-15T12:00:37.453Z,28.46
2023-04-15T12:01:36.477Z,28.43
2023-04-15T12:02:36.476Z,28.42
2023-04-15T12:03:36.521Z,28.42
2023-04-15T12:04:36.532Z,28.42
2023-04-15T12:05:36.419Z,28.42
2023-04-15T12:06:36.400Z,28.36
2023-04-15T12:07:36.385Z,28.38
2023-04-15T12:08:36.377Z,28.39
2023-04-15T12:09:36.393Z,28.39
2023-04-15T12:10:36.489Z,28.33
2023-04-15T12:11:36.534Z,28.35
2023-04-15T12:12:36.593Z,28.35
2023-04-15T12:13:36.655Z,28.35
2023-04-15T12:14:36.731Z,28.33
2023-04-15T12:15:36.839Z,28.29
2023-04-15T12:16:44.546Z,28.29
2023-04-15T12:17:51.553Z,28.29
2023-04-15T12:18:37.843Z,28.29
2023-04-15T12:19:36.820Z,28.29
2023-04-15T12:20:36.814Z,28.29
2023-04-15T12:21:36.808Z,28.24
2023-04-15T12:22:36.802Z,28.26
2023-04-15T12:23:36.811Z,28.27
2023-04-15T12:24:36.789Z,28.27
2023-04-15T12:25:36.801Z,28.26
2023-04-15T12:26:36.799Z,28.27
2023-04-15T12:27:36.772Z,28.24
2023-04-15T12:28:36.758Z,28.26
2023-04-15T12:29:36.774Z,28.27
2023-04-15T12:30:36.754Z,28.27
2023-04-15T12:31:36.813Z,28.24
2023-04-15T12:32:36.763Z,28.26
2023-04-15T12:33:36.760Z,28.27
2023-04-15T12:34:36.749Z,28.23
2023-04-15T12:35:36.736Z,28.30
2023-04-15T12:36:36.706Z,28.26
2023-04-15T12:37:36.705Z,28.26
2023-04-15T12:38:36.706Z,28.26
2023-04-15T12:39:36.712Z,28.23
2023-04-15T12:40:36.705Z,28.22
2023-04-15T12:41:36.739Z,28.23
2023-04-15T12:42:36.773Z,28.22
2023-04-15T12:43:36.850Z,28.20
2023-04-15T12:44:36.913Z,28.23
2023-04-15T12:45:36.958Z,28.22
2023-04-15T12:46:37.038Z,28.18
2023-04-15T12:47:37.123Z,28.18
2023-04-15T12:48:37.129Z,28.18
2023-04-15T12:49:37.197Z,28.19
2023-04-15T12:50:37.258Z,28.18
2023-04-15T12:51:37.311Z,28.19
2023-04-15T12:52:37.385Z,28.16
2023-04-15T12:53:37.410Z,28.19